sensor_id;sensor_type;location;lat;lon;timestamp;P1;durP1;ratioP1;P2;durP2;ratioP2
18875;SDS011;9570;50.854;13.778;2023-08-12T00:00:48;4.67;;;2.90;;
18875;SDS011;9570;50.854;13.778;2023-08-12T00:03:13;3.80;;;2.73;;
18875;SDS011;9570;50.854;13.778;2023-08-12T00:05:39;7.43;;;2.83;;
18875;SDS011;9570;50.854;13.778;2023-08-12T00:08:05;6.97;;;3.00;;
18875;SDS011;9570;50.854;13.778;2023-08-12T00:10:31;5.50;;;3.37;;
18875;SDS011;9570;50.854;13.778;2023-08-12T00:12:56;3.47;;;2.93;;
18875;SDS011;9570;50.854;13.778;2023-08-12T00:15:22;4.37;;;3.13;;
18875;SDS011;9570;50.854;13.778;2023-08-12T00:17:48;8.23;;;3.20;;
18875;SDS011;9570;50.854;13.778;2023-08-12T00:20:13;7.00;;;3.10;;
18875;SDS011;9570;50.854;13.778;2023-08-12T00:22:39;5.43;;;2.87;;
18875;SDS011;9570;50.854;13.778;2023-08-12T00:25:05;5.10;;;3.03;;
18875;SDS011;9570;50.854;13.778;2023-08-12T00:27:31;4.20;;;2.90;;
18875;SDS011;9570;50.854;13.778;2023-08-12T00:29:57;5.23;;;3.00;;
18875;SDS011;9570;50.854;13.778;2023-08-12T00:32:22;7.03;;;3.20;;
18875;SDS011;9570;50.854;13.778;2023-08-12T00:34:48;4.40;;;3.17;;
18875;SDS011;9570;50.854;13.778;2023-08-12T00:37:13;5.23;;;3.00;;
18875;SDS011;9570;50.854;13.778;2023-08-12T00:39:39;7.60;;;3.47;;
18875;SDS011;9570;50.854;13.778;2023-08-12T00:42:04;8.87;;;3.20;;
18875;SDS011;9570;50.854;13.778;2023-08-12T00:44:30;5.90;;;3.23;;
18875;SDS011;9570;50.854;13.778;2023-08-12T00:46:55;5.00;;;3.47;;
18875;SDS011;9570;50.854;13.778;2023-08-12T00:49:22;7.73;;;3.40;;
18875;SDS011;9570;50.854;13.778;2023-08-12T00:51:49;5.17;;;3.27;;
18875;SDS011;9570;50.854;13.778;2023-08-12T00:54:15;9.47;;;3.30;;
18875;SDS011;9570;50.854;13.778;2023-08-12T00:56:42;6.53;;;3.43;;
18875;SDS011;9570;50.854;13.778;2023-08-12T00:59:08;4.67;;;3.23;;
18875;SDS011;9570;50.854;13.778;2023-08-12T01:01:35;7.67;;;3.27;;
18875;SDS011;9570;50.854;13.778;2023-08-12T01:04:04;6.83;;;3.37;;
18875;SDS011;9570;50.854;13.778;2023-08-12T01:06:30;10.57;;;3.87;;
18875;SDS011;9570;50.854;13.778;2023-08-12T01:08:56;4.13;;;3.30;;
18875;SDS011;9570;50.854;13.778;2023-08-12T01:11:42;4.80;;;3.13;;
18875;SDS011;9570;50.854;13.778;2023-08-12T01:14:22;5.87;;;3.27;;
18875;SDS011;9570;50.854;13.778;2023-08-12T01:16:58;5.20;;;2.90;;
18875;SDS011;9570;50.854;13.778;2023-08-12T01:22:03;11.93;;;3.40;;
18875;SDS011;9570;50.854;13.778;2023-08-12T01:24:39;6.57;;;3.27;;
18875;SDS011;9570;50.854;13.778;2023-08-12T01:27:09;6.43;;;3.30;;
18875;SDS011;9570;50.854;13.778;2023-08-12T01:29:37;3.67;;;3.33;;
18875;SDS011;9570;50.854;13.778;2023-08-12T01:35:01;7.10;;;3.47;;
18875;SDS011;9570;50.854;13.778;2023-08-12T01:37:32;4.77;;;3.50;;
18875;SDS011;9570;50.854;13.778;2023-08-12T01:40:00;4.87;;;3.40;;
18875;SDS011;9570;50.854;13.778;2023-08-12T01:42:29;6.63;;;3.90;;
18875;SDS011;9570;50.854;13.778;2023-08-12T01:44:57;5.43;;;3.37;;
18875;SDS011;9570;50.854;13.778;2023-08-12T01:47:22;7.30;;;3.53;;
18875;SDS011;9570;50.854;13.778;2023-08-12T01:49:48;4.60;;;3.13;;
18875;SDS011;9570;50.854;13.778;2023-08-12T01:52:14;8.37;;;3.33;;
18875;SDS011;9570;50.854;13.778;2023-08-12T01:54:40;3.63;;;3.33;;
18875;SDS011;9570;50.854;13.778;2023-08-12T01:57:05;8.33;;;3.77;;
18875;SDS011;9570;50.854;13.778;2023-08-12T01:59:32;8.67;;;3.70;;
18875;SDS011;9570;50.854;13.778;2023-08-12T02:01:57;5.10;;;3.33;;
18875;SDS011;9570;50.854;13.778;2023-08-12T02:04:23;6.27;;;3.20;;
18875;SDS011;9570;50.854;13.778;2023-08-12T02:06:48;6.93;;;3.57;;
18875;SDS011;9570;50.854;13.778;2023-08-12T02:09:14;4.07;;;3.00;;
18875;SDS011;9570;50.854;13.778;2023-08-12T02:11:40;8.37;;;3.23;;
18875;SDS011;9570;50.854;13.778;2023-08-12T02:14:06;3.80;;;3.40;;
18875;SDS011;9570;50.854;13.778;2023-08-12T02:16:31;6.73;;;3.57;;
18875;SDS011;9570;50.854;13.778;2023-08-12T02:18:57;5.50;;;3.47;;
18875;SDS011;9570;50.854;13.778;2023-08-12T02:21:22;4.17;;;3.60;;
18875;SDS011;9570;50.854;13.778;2023-08-12T02:23:48;6.53;;;3.47;;
18875;SDS011;9570;50.854;13.778;2023-08-12T02:26:13;5.47;;;3.73;;
18875;SDS011;9570;50.854;13.778;2023-08-12T02:28:39;6.63;;;3.47;;
18875;SDS011;9570;50.854;13.778;2023-08-12T02:31:04;7.73;;;3.40;;
18875;SDS011;9570;50.854;13.778;2023-08-12T02:33:30;4.37;;;3.30;;
18875;SDS011;9570;50.854;13.778;2023-08-12T02:35:55;6.77;;;3.63;;
18875;SDS011;9570;50.854;13.778;2023-08-12T02:38:21;8.97;;;3.60;;
18875;SDS011;9570;50.854;13.778;2023-08-12T02:40:49;5.33;;;3.83;;
18875;SDS011;9570;50.854;13.778;2023-08-12T02:43:15;6.07;;;3.80;;
18875;SDS011;9570;50.854;13.778;2023-08-12T02:45:41;3.47;;;3.17;;
18875;SDS011;9570;50.854;13.778;2023-08-12T02:48:07;6.43;;;3.80;;
18875;SDS011;9570;50.854;13.778;2023-08-12T02:50:34;9.70;;;3.60;;
18875;SDS011;9570;50.854;13.778;2023-08-12T02:53:00;6.07;;;3.23;;
18875;SDS011;9570;50.854;13.778;2023-08-12T02:55:25;6.30;;;3.37;;
18875;SDS011;9570;50.854;13.778;2023-08-12T02:57:51;6.27;;;3.60;;
18875;SDS011;9570;50.854;13.778;2023-08-12T03:00:16;4.07;;;3.63;;
18875;SDS011;9570;50.854;13.778;2023-08-12T03:02:42;3.80;;;3.37;;
18875;SDS011;9570;50.854;13.778;2023-08-12T03:05:08;5.30;;;3.70;;
18875;SDS011;9570;50.854;13.778;2023-08-12T03:07:34;8.43;;;3.80;;
18875;SDS011;9570;50.854;13.778;2023-08-12T03:09:59;4.60;;;3.37;;
18875;SDS011;9570;50.854;13.778;2023-08-12T03:12:25;5.47;;;3.60;;
18875;SDS011;9570;50.854;13.778;2023-08-12T03:14:50;5.80;;;3.80;;
18875;SDS011;9570;50.854;13.778;2023-08-12T03:17:16;5.77;;;3.60;;
18875;SDS011;9570;50.854;13.778;2023-08-12T03:19:41;6.30;;;3.93;;
18875;SDS011;9570;50.854;13.778;2023-08-12T03:22:07;4.33;;;3.40;;
18875;SDS011;9570;50.854;13.778;2023-08-12T03:24:32;3.70;;;3.40;;
18875;SDS011;9570;50.854;13.778;2023-08-12T03:26:58;4.53;;;3.47;;
18875;SDS011;9570;50.854;13.778;2023-08-12T03:29:24;9.17;;;3.93;;
18875;SDS011;9570;50.854;13.778;2023-08-12T03:31:49;6.40;;;3.90;;
18875;SDS011;9570;50.854;13.778;2023-08-12T03:34:15;4.77;;;3.57;;
18875;SDS011;9570;50.854;13.778;2023-08-12T03:36:40;6.10;;;3.50;;
18875;SDS011;9570;50.854;13.778;2023-08-12T03:39:06;3.97;;;3.57;;
18875;SDS011;9570;50.854;13.778;2023-08-12T03:41:31;9.03;;;3.60;;
18875;SDS011;9570;50.854;13.778;2023-08-12T03:43:57;4.97;;;3.50;;
18875;SDS011;9570;50.854;13.778;2023-08-12T03:46:23;3.37;;;3.07;;
18875;SDS011;9570;50.854;13.778;2023-08-12T03:48:48;5.93;;;3.50;;
18875;SDS011;9570;50.854;13.778;2023-08-12T03:51:14;7.43;;;3.40;;
18875;SDS011;9570;50.854;13.778;2023-08-12T03:53:39;3.83;;;3.43;;
18875;SDS011;9570;50.854;13.778;2023-08-12T03:56:05;6.47;;;3.70;;
18875;SDS011;9570;50.854;13.778;2023-08-12T03:58:30;7.40;;;3.80;;
18875;SDS011;9570;50.854;13.778;2023-08-12T04:00:56;5.40;;;3.30;;
18875;SDS011;9570;50.854;13.778;2023-08-12T04:03:21;13.40;;;4.13;;
18875;SDS011;9570;50.854;13.778;2023-08-12T04:05:47;7.17;;;3.20;;
18875;SDS011;9570;50.854;13.778;2023-08-12T04:08:14;5.80;;;3.40;;
18875;SDS011;9570;50.854;13.778;2023-08-12T04:10:40;6.33;;;3.37;;
18875;SDS011;9570;50.854;13.778;2023-08-12T04:13:08;5.83;;;3.50;;
18875;SDS011;9570;50.854;13.778;2023-08-12T04:15:34;5.13;;;3.33;;
18875;SDS011;9570;50.854;13.778;2023-08-12T04:17:59;4.87;;;3.63;;
18875;SDS011;9570;50.854;13.778;2023-08-12T04:20:25;6.07;;;3.40;;
18875;SDS011;9570;50.854;13.778;2023-08-12T04:22:51;4.90;;;3.57;;
18875;SDS011;9570;50.854;13.778;2023-08-12T04:25:16;5.57;;;3.73;;
18875;SDS011;9570;50.854;13.778;2023-08-12T04:27:42;4.17;;;3.53;;
18875;SDS011;9570;50.854;13.778;2023-08-12T04:30:07;6.67;;;3.43;;
18875;SDS011;9570;50.854;13.778;2023-08-12T04:32:33;5.20;;;3.10;;
18875;SDS011;9570;50.854;13.778;2023-08-12T04:34:59;6.43;;;3.53;;
18875;SDS011;9570;50.854;13.778;2023-08-12T04:37:24;5.17;;;3.20;;
18875;SDS011;9570;50.854;13.778;2023-08-12T04:39:51;4.50;;;3.50;;
18875;SDS011;9570;50.854;13.778;2023-08-12T04:42:16;7.23;;;3.17;;
18875;SDS011;9570;50.854;13.778;2023-08-12T04:44:42;5.43;;;3.33;;
18875;SDS011;9570;50.854;13.778;2023-08-12T04:47:07;8.27;;;3.93;;
18875;SDS011;9570;50.854;13.778;2023-08-12T04:49:33;5.53;;;3.50;;
18875;SDS011;9570;50.854;13.778;2023-08-12T04:51:58;7.10;;;3.40;;
18875;SDS011;9570;50.854;13.778;2023-08-12T04:54:23;4.20;;;3.77;;
18875;SDS011;9570;50.854;13.778;2023-08-12T04:56:49;6.27;;;4.10;;
18875;SDS011;9570;50.854;13.778;2023-08-12T04:59:14;4.20;;;3.40;;
18875;SDS011;9570;50.854;13.778;2023-08-12T05:01:40;8.50;;;3.57;;
18875;SDS011;9570;50.854;13.778;2023-08-12T05:04:05;4.03;;;3.10;;
18875;SDS011;9570;50.854;13.778;2023-08-12T05:06:31;7.83;;;3.70;;
18875;SDS011;9570;50.854;13.778;2023-08-12T05:08:56;4.87;;;3.50;;
18875;SDS011;9570;50.854;13.778;2023-08-12T05:11:22;4.83;;;3.60;;
18875;SDS011;9570;50.854;13.778;2023-08-12T05:13:47;3.97;;;3.57;;
18875;SDS011;9570;50.854;13.778;2023-08-12T05:16:13;6.00;;;4.00;;
18875;SDS011;9570;50.854;13.778;2023-08-12T05:18:38;7.60;;;3.40;;
18875;SDS011;9570;50.854;13.778;2023-08-12T05:21:04;3.20;;;2.90;;
18875;SDS011;9570;50.854;13.778;2023-08-12T05:23:29;5.67;;;3.47;;
18875;SDS011;9570;50.854;13.778;2023-08-12T05:25:55;7.97;;;3.77;;
18875;SDS011;9570;50.854;13.778;2023-08-12T05:28:20;3.73;;;3.40;;
18875;SDS011;9570;50.854;13.778;2023-08-12T05:30:46;4.97;;;3.50;;
18875;SDS011;9570;50.854;13.778;2023-08-12T05:33:11;5.43;;;3.50;;
18875;SDS011;9570;50.854;13.778;2023-08-12T05:35:37;7.40;;;3.70;;
18875;SDS011;9570;50.854;13.778;2023-08-12T05:38:03;4.20;;;3.37;;
18875;SDS011;9570;50.854;13.778;2023-08-12T05:40:28;6.70;;;4.00;;
18875;SDS011;9570;50.854;13.778;2023-08-12T05:42:54;4.33;;;3.43;;
18875;SDS011;9570;50.854;13.778;2023-08-12T05:45:19;4.10;;;3.70;;
18875;SDS011;9570;50.854;13.778;2023-08-12T05:47:45;3.70;;;3.40;;
18875;SDS011;9570;50.854;13.778;2023-08-12T05:50:10;7.27;;;3.63;;
18875;SDS011;9570;50.854;13.778;2023-08-12T05:52:36;4.20;;;3.50;;
18875;SDS011;9570;50.854;13.778;2023-08-12T05:55:01;5.80;;;3.50;;
18875;SDS011;9570;50.854;13.778;2023-08-12T05:57:27;5.57;;;3.30;;
18875;SDS011;9570;50.854;13.778;2023-08-12T05:59:52;5.07;;;4.00;;
18875;SDS011;9570;50.854;13.778;2023-08-12T06:02:18;6.93;;;3.80;;
18875;SDS011;9570;50.854;13.778;2023-08-12T06:04:43;6.13;;;4.00;;
18875;SDS011;9570;50.854;13.778;2023-08-12T06:07:09;9.07;;;4.37;;
18875;SDS011;9570;50.854;13.778;2023-08-12T06:09:34;5.33;;;4.27;;
18875;SDS011;9570;50.854;13.778;2023-08-12T06:12:00;5.70;;;4.30;;
18875;SDS011;9570;50.854;13.778;2023-08-12T06:14:26;4.77;;;3.50;;
18875;SDS011;9570;50.854;13.778;2023-08-12T06:16:51;5.93;;;4.10;;
18875;SDS011;9570;50.854;13.778;2023-08-12T06:19:17;4.83;;;3.87;;
18875;SDS011;9570;50.854;13.778;2023-08-12T06:21:42;6.50;;;3.90;;
18875;SDS011;9570;50.854;13.778;2023-08-12T06:24:08;3.77;;;3.43;;
18875;SDS011;9570;50.854;13.778;2023-08-12T06:26:33;5.77;;;3.70;;
18875;SDS011;9570;50.854;13.778;2023-08-12T06:28:59;4.60;;;3.23;;
18875;SDS011;9570;50.854;13.778;2023-08-12T06:31:24;4.83;;;3.43;;
18875;SDS011;9570;50.854;13.778;2023-08-12T06:33:50;6.23;;;3.33;;
18875;SDS011;9570;50.854;13.778;2023-08-12T06:36:15;4.37;;;3.13;;
18875;SDS011;9570;50.854;13.778;2023-08-12T06:38:40;4.33;;;3.30;;
18875;SDS011;9570;50.854;13.778;2023-08-12T06:41:06;6.70;;;3.17;;
18875;SDS011;9570;50.854;13.778;2023-08-12T06:43:31;4.97;;;3.43;;
18875;SDS011;9570;50.854;13.778;2023-08-12T06:45:57;4.97;;;3.00;;
18875;SDS011;9570;50.854;13.778;2023-08-12T06:48:22;7.33;;;3.53;;
18875;SDS011;9570;50.854;13.778;2023-08-12T06:50:54;4.50;;;3.20;;
18875;SDS011;9570;50.854;13.778;2023-08-12T06:53:20;6.50;;;3.07;;
18875;SDS011;9570;50.854;13.778;2023-08-12T06:55:46;6.97;;;3.30;;
18875;SDS011;9570;50.854;13.778;2023-08-12T06:58:12;7.60;;;3.40;;
18875;SDS011;9570;50.854;13.778;2023-08-12T07:00:38;5.77;;;3.37;;
18875;SDS011;9570;50.854;13.778;2023-08-12T07:03:04;5.13;;;3.03;;
18875;SDS011;9570;50.854;13.778;2023-08-12T07:05:29;7.50;;;3.27;;
18875;SDS011;9570;50.854;13.778;2023-08-12T07:07:55;5.87;;;2.97;;
18875;SDS011;9570;50.854;13.778;2023-08-12T07:10:20;5.60;;;2.97;;
18875;SDS011;9570;50.854;13.778;2023-08-12T07:12:46;3.87;;;2.90;;
18875;SDS011;9570;50.854;13.778;2023-08-12T07:15:11;4.20;;;3.07;;
18875;SDS011;9570;50.854;13.778;2023-08-12T07:17:37;4.07;;;2.87;;
18875;SDS011;9570;50.854;13.778;2023-08-12T07:20:02;4.63;;;2.77;;
18875;SDS011;9570;50.854;13.778;2023-08-12T07:22:29;4.17;;;2.90;;
18875;SDS011;9570;50.854;13.778;2023-08-12T07:24:54;9.67;;;3.00;;
18875;SDS011;9570;50.854;13.778;2023-08-12T07:27:20;2.90;;;2.60;;
18875;SDS011;9570;50.854;13.778;2023-08-12T07:29:46;4.27;;;2.70;;
18875;SDS011;9570;50.854;13.778;2023-08-12T07:32:12;5.17;;;2.20;;
18875;SDS011;9570;50.854;13.778;2023-08-12T07:34:37;4.30;;;2.37;;
18875;SDS011;9570;50.854;13.778;2023-08-12T07:37:03;2.50;;;2.27;;
18875;SDS011;9570;50.854;13.778;2023-08-12T07:39:28;5.23;;;3.03;;
18875;SDS011;9570;50.854;13.778;2023-08-12T07:41:54;4.43;;;2.43;;
18875;SDS011;9570;50.854;13.778;2023-08-12T07:44:19;3.23;;;2.23;;
18875;SDS011;9570;50.854;13.778;2023-08-12T07:46:45;2.37;;;2.00;;
18875;SDS011;9570;50.854;13.778;2023-08-12T07:49:10;3.38;;;2.20;;
18875;SDS011;9570;50.854;13.778;2023-08-12T07:51:36;4.65;;;2.00;;
18875;SDS011;9570;50.854;13.778;2023-08-12T07:54:01;5.03;;;2.38;;
18875;SDS011;9570;50.854;13.778;2023-08-12T07:56:27;3.53;;;2.10;;
18875;SDS011;9570;50.854;13.778;2023-08-12T07:58:52;2.27;;;1.93;;
18875;SDS011;9570;50.854;13.778;2023-08-12T08:01:18;2.50;;;1.98;;
18875;SDS011;9570;50.854;13.778;2023-08-12T08:03:43;3.27;;;2.17;;
18875;SDS011;9570;50.854;13.778;2023-08-12T08:06:09;2.50;;;1.80;;
18875;SDS011;9570;50.854;13.778;2023-08-12T08:08:34;2.43;;;2.00;;
18875;SDS011;9570;50.854;13.778;2023-08-12T08:11:00;2.30;;;1.90;;
18875;SDS011;9570;50.854;13.778;2023-08-12T08:13:25;2.28;;;1.85;;
18875;SDS011;9570;50.854;13.778;2023-08-12T08:15:51;3.05;;;1.80;;
18875;SDS011;9570;50.854;13.778;2023-08-12T08:18:16;2.17;;;1.67;;
18875;SDS011;9570;50.854;13.778;2023-08-12T08:20:42;1.80;;;1.63;;
18875;SDS011;9570;50.854;13.778;2023-08-12T08:23:08;3.95;;;1.70;;
18875;SDS011;9570;50.854;13.778;2023-08-12T08:25:33;1.60;;;1.50;;
18875;SDS011;9570;50.854;13.778;2023-08-12T08:27:59;2.85;;;1.75;;
18875;SDS011;9570;50.854;13.778;2023-08-12T08:30:24;2.22;;;1.80;;
18875;SDS011;9570;50.854;13.778;2023-08-12T08:32:50;2.03;;;1.48;;
18875;SDS011;9570;50.854;13.778;2023-08-12T08:35:16;2.15;;;1.95;;
18875;SDS011;9570;50.854;13.778;2023-08-12T08:37:42;1.60;;;1.50;;
18875;SDS011;9570;50.854;13.778;2023-08-12T08:40:07;2.50;;;1.70;;
18875;SDS011;9570;50.854;13.778;2023-08-12T08:42:33;1.80;;;1.60;;
18875;SDS011;9570;50.854;13.778;2023-08-12T08:45:00;4.10;;;1.65;;
18875;SDS011;9570;50.854;13.778;2023-08-12T08:47:29;2.10;;;1.60;;
18875;SDS011;9570;50.854;13.778;2023-08-12T08:49:55;2.25;;;1.65;;
18875;SDS011;9570;50.854;13.778;2023-08-12T08:52:22;3.83;;;1.73;;
18875;SDS011;9570;50.854;13.778;2023-08-12T08:54:48;1.75;;;1.65;;
18875;SDS011;9570;50.854;13.778;2023-08-12T08:57:14;1.70;;;1.52;;
18875;SDS011;9570;50.854;13.778;2023-08-12T08:59:40;2.03;;;1.63;;
18875;SDS011;9570;50.854;13.778;2023-08-12T09:02:05;2.85;;;1.73;;
18875;SDS011;9570;50.854;13.778;2023-08-12T09:04:40;1.98;;;1.73;;
18875;SDS011;9570;50.854;13.778;2023-08-12T09:07:06;2.20;;;1.50;;
18875;SDS011;9570;50.854;13.778;2023-08-12T09:09:32;1.75;;;1.50;;
18875;SDS011;9570;50.854;13.778;2023-08-12T09:11:58;1.73;;;1.50;;
18875;SDS011;9570;50.854;13.778;2023-08-12T09:14:24;2.72;;;1.60;;
18875;SDS011;9570;50.854;13.778;2023-08-12T09:16:49;2.13;;;1.63;;
18875;SDS011;9570;50.854;13.778;2023-08-12T09:19:15;2.75;;;1.60;;
18875;SDS011;9570;50.854;13.778;2023-08-12T09:21:41;2.75;;;1.92;;
18875;SDS011;9570;50.854;13.778;2023-08-12T09:24:07;2.60;;;1.83;;
18875;SDS011;9570;50.854;13.778;2023-08-12T09:26:33;1.98;;;1.67;;
18875;SDS011;9570;50.854;13.778;2023-08-12T09:28:59;4.35;;;1.70;;
18875;SDS011;9570;50.854;13.778;2023-08-12T09:31:29;2.65;;;1.80;;
18875;SDS011;9570;50.854;13.778;2023-08-12T09:34:06;2.97;;;1.80;;
18875;SDS011;9570;50.854;13.778;2023-08-12T09:36:32;2.78;;;1.90;;
18875;SDS011;9570;50.854;13.778;2023-08-12T09:38:58;2.15;;;1.95;;
18875;SDS011;9570;50.854;13.778;2023-08-12T09:41:24;2.63;;;1.77;;
18875;SDS011;9570;50.854;13.778;2023-08-12T09:43:51;2.22;;;1.90;;
18875;SDS011;9570;50.854;13.778;2023-08-12T09:46:18;2.03;;;1.85;;
18875;SDS011;9570;50.854;13.778;2023-08-12T09:48:46;1.85;;;1.65;;
18875;SDS011;9570;50.854;13.778;2023-08-12T09:51:13;2.00;;;1.80;;
18875;SDS011;9570;50.854;13.778;2023-08-12T09:53:38;3.08;;;2.00;;
18875;SDS011;9570;50.854;13.778;2023-08-12T09:56:07;1.73;;;1.60;;
18875;SDS011;9570;50.854;13.778;2023-08-12T09:58:36;2.05;;;1.83;;
18875;SDS011;9570;50.854;13.778;2023-08-12T10:01:02;2.38;;;1.70;;
18875;SDS011;9570;50.854;13.778;2023-08-12T10:03:29;1.88;;;1.60;;
18875;SDS011;9570;50.854;13.778;2023-08-12T10:05:57;2.22;;;1.88;;
18875;SDS011;9570;50.854;13.778;2023-08-12T10:08:22;2.10;;;1.52;;
18875;SDS011;9570;50.854;13.778;2023-08-12T10:10:48;4.40;;;1.80;;
18875;SDS011;9570;50.854;13.778;2023-08-12T10:13:14;3.15;;;1.80;;
18875;SDS011;9570;50.854;13.778;2023-08-12T10:15:41;3.17;;;1.73;;
18875;SDS011;9570;50.854;13.778;2023-08-12T10:18:06;2.03;;;1.83;;
18875;SDS011;9570;50.854;13.778;2023-08-12T10:20:33;2.17;;;1.80;;
18875;SDS011;9570;50.854;13.778;2023-08-12T10:23:00;3.70;;;1.80;;
18875;SDS011;9570;50.854;13.778;2023-08-12T10:25:30;2.60;;;2.00;;
18875;SDS011;9570;50.854;13.778;2023-08-12T10:27:57;2.38;;;1.83;;
18875;SDS011;9570;50.854;13.778;2023-08-12T10:30:23;1.98;;;1.80;;
18875;SDS011;9570;50.854;13.778;2023-08-12T10:32:48;4.22;;;2.20;;
18875;SDS011;9570;50.854;13.778;2023-08-12T10:35:14;4.18;;;2.10;;
18875;SDS011;9570;50.854;13.778;2023-08-12T10:37:40;3.08;;;2.08;;
18875;SDS011;9570;50.854;13.778;2023-08-12T10:40:06;2.40;;;1.90;;
18875;SDS011;9570;50.854;13.778;2023-08-12T10:42:46;2.65;;;1.90;;
18875;SDS011;9570;50.854;13.778;2023-08-12T10:45:13;2.20;;;1.95;;
18875;SDS011;9570;50.854;13.778;2023-08-12T10:47:40;3.28;;;1.80;;
18875;SDS011;9570;50.854;13.778;2023-08-12T10:50:22;2.05;;;1.85;;
18875;SDS011;9570;50.854;13.778;2023-08-12T10:52:51;2.50;;;2.22;;
18875;SDS011;9570;50.854;13.778;2023-08-12T10:57:46;2.30;;;2.00;;
18875;SDS011;9570;50.854;13.778;2023-08-12T11:00:19;2.17;;;1.92;;
18875;SDS011;9570;50.854;13.778;2023-08-12T11:02:57;4.20;;;2.20;;
18875;SDS011;9570;50.854;13.778;2023-08-12T11:05:23;5.28;;;2.30;;
18875;SDS011;9570;50.854;13.778;2023-08-12T11:07:56;2.50;;;2.20;;
18875;SDS011;9570;50.854;13.778;2023-08-12T11:10:23;4.65;;;2.33;;
18875;SDS011;9570;50.854;13.778;2023-08-12T11:15:38;5.03;;;2.65;;
18875;SDS011;9570;50.854;13.778;2023-08-12T11:18:13;4.53;;;2.92;;
18875;SDS011;9570;50.854;13.778;2023-08-12T11:20:41;2.97;;;2.40;;
18875;SDS011;9570;50.854;13.778;2023-08-12T11:23:08;6.43;;;2.30;;
18875;SDS011;9570;50.854;13.778;2023-08-12T11:25:35;5.73;;;2.87;;
18875;SDS011;9570;50.854;13.778;2023-08-12T11:28:03;3.10;;;2.67;;
18875;SDS011;9570;50.854;13.778;2023-08-12T11:30:29;4.07;;;2.77;;
18875;SDS011;9570;50.854;13.778;2023-08-12T11:32:55;3.33;;;2.40;;
18875;SDS011;9570;50.854;13.778;2023-08-12T11:35:21;3.90;;;3.03;;
18875;SDS011;9570;50.854;13.778;2023-08-12T11:37:50;6.63;;;3.00;;
18875;SDS011;9570;50.854;13.778;2023-08-12T11:40:21;4.23;;;2.93;;
18875;SDS011;9570;50.854;13.778;2023-08-12T11:42:48;5.07;;;2.40;;
18875;SDS011;9570;50.854;13.778;2023-08-12T11:45:18;4.10;;;2.90;;
18875;SDS011;9570;50.854;13.778;2023-08-12T11:47:45;5.60;;;2.60;;
18875;SDS011;9570;50.854;13.778;2023-08-12T11:50:17;3.40;;;2.83;;
18875;SDS011;9570;50.854;13.778;2023-08-12T11:52:44;4.77;;;3.00;;
18875;SDS011;9570;50.854;13.778;2023-08-12T11:55:10;3.30;;;2.67;;
18875;SDS011;9570;50.854;13.778;2023-08-12T11:57:36;7.23;;;3.10;;
18875;SDS011;9570;50.854;13.778;2023-08-12T12:00:06;5.13;;;2.67;;
18875;SDS011;9570;50.854;13.778;2023-08-12T12:02:39;9.47;;;2.90;;
18875;SDS011;9570;50.854;13.778;2023-08-12T12:05:12;3.20;;;2.87;;
18875;SDS011;9570;50.854;13.778;2023-08-12T12:07:38;6.30;;;3.10;;
18875;SDS011;9570;50.854;13.778;2023-08-12T12:10:04;8.83;;;2.97;;
18875;SDS011;9570;50.854;13.778;2023-08-12T12:12:32;3.67;;;2.80;;
18875;SDS011;9570;50.854;13.778;2023-08-12T12:14:58;3.60;;;2.70;;
18875;SDS011;9570;50.854;13.778;2023-08-12T12:17:24;4.50;;;2.87;;
18875;SDS011;9570;50.854;13.778;2023-08-12T12:19:54;4.30;;;2.90;;
18875;SDS011;9570;50.854;13.778;2023-08-12T12:22:25;6.73;;;3.10;;
18875;SDS011;9570;50.854;13.778;2023-08-12T12:24:57;4.10;;;3.20;;
18875;SDS011;9570;50.854;13.778;2023-08-12T12:27:24;4.80;;;3.30;;
18875;SDS011;9570;50.854;13.778;2023-08-12T12:29:49;4.03;;;3.10;;
18875;SDS011;9570;50.854;13.778;2023-08-12T12:32:17;5.80;;;3.13;;
18875;SDS011;9570;50.854;13.778;2023-08-12T12:34:44;3.77;;;3.07;;
18875;SDS011;9570;50.854;13.778;2023-08-12T12:37:10;9.70;;;3.00;;
18875;SDS011;9570;50.854;13.778;2023-08-12T12:39:35;5.10;;;3.27;;
18875;SDS011;9570;50.854;13.778;2023-08-12T12:42:01;5.07;;;3.10;;
18875;SDS011;9570;50.854;13.778;2023-08-12T12:44:27;3.90;;;3.43;;
18875;SDS011;9570;50.854;13.778;2023-08-12T12:46:52;4.03;;;2.80;;
18875;SDS011;9570;50.854;13.778;2023-08-12T12:49:18;4.33;;;3.23;;
18875;SDS011;9570;50.854;13.778;2023-08-12T12:51:44;7.63;;;3.40;;
18875;SDS011;9570;50.854;13.778;2023-08-12T12:54:10;4.60;;;3.10;;
18875;SDS011;9570;50.854;13.778;2023-08-12T12:56:35;6.70;;;3.40;;
18875;SDS011;9570;50.854;13.778;2023-08-12T12:59:01;3.70;;;2.80;;
18875;SDS011;9570;50.854;13.778;2023-08-12T13:01:26;5.03;;;3.30;;
18875;SDS011;9570;50.854;13.778;2023-08-12T13:03:52;4.53;;;2.97;;
18875;SDS011;9570;50.854;13.778;2023-08-12T13:06:17;4.70;;;3.00;;
18875;SDS011;9570;50.854;13.778;2023-08-12T13:08:43;4.67;;;3.00;;
18875;SDS011;9570;50.854;13.778;2023-08-12T13:11:08;3.17;;;2.83;;
18875;SDS011;9570;50.854;13.778;2023-08-12T13:13:34;5.50;;;3.00;;
18875;SDS011;9570;50.854;13.778;2023-08-12T13:15:59;4.83;;;3.10;;
18875;SDS011;9570;50.854;13.778;2023-08-12T13:18:25;6.77;;;3.20;;
18875;SDS011;9570;50.854;13.778;2023-08-12T13:20:50;4.47;;;2.70;;
18875;SDS011;9570;50.854;13.778;2023-08-12T13:23:16;6.27;;;3.40;;
18875;SDS011;9570;50.854;13.778;2023-08-12T13:25:41;6.57;;;3.13;;
18875;SDS011;9570;50.854;13.778;2023-08-12T13:28:07;5.20;;;3.20;;
18875;SDS011;9570;50.854;13.778;2023-08-12T13:30:33;7.27;;;3.20;;
18875;SDS011;9570;50.854;13.778;2023-08-12T13:32:58;5.00;;;3.13;;
18875;SDS011;9570;50.854;13.778;2023-08-12T13:35:24;5.53;;;2.87;;
18875;SDS011;9570;50.854;13.778;2023-08-12T13:37:49;5.73;;;2.90;;
18875;SDS011;9570;50.854;13.778;2023-08-12T13:40:16;6.03;;;2.90;;
18875;SDS011;9570;50.854;13.778;2023-08-12T13:42:42;5.00;;;2.97;;
18875;SDS011;9570;50.854;13.778;2023-08-12T13:45:09;3.10;;;2.80;;
18875;SDS011;9570;50.854;13.778;2023-08-12T13:47:36;5.20;;;2.80;;
18875;SDS011;9570;50.854;13.778;2023-08-12T13:50:01;6.27;;;3.10;;
18875;SDS011;9570;50.854;13.778;2023-08-12T13:52:27;6.53;;;3.10;;
18875;SDS011;9570;50.854;13.778;2023-08-12T13:54:53;5.13;;;2.87;;
18875;SDS011;9570;50.854;13.778;2023-08-12T13:57:18;3.20;;;2.90;;
18875;SDS011;9570;50.854;13.778;2023-08-12T13:59:44;3.00;;;2.70;;
18875;SDS011;9570;50.854;13.778;2023-08-12T14:02:10;6.43;;;3.03;;
18875;SDS011;9570;50.854;13.778;2023-08-12T14:04:35;3.90;;;3.20;;
18875;SDS011;9570;50.854;13.778;2023-08-12T14:07:02;5.87;;;2.87;;
18875;SDS011;9570;50.854;13.778;2023-08-12T14:09:28;3.97;;;2.90;;
18875;SDS011;9570;50.854;13.778;2023-08-12T14:11:54;5.33;;;2.93;;
18875;SDS011;9570;50.854;13.778;2023-08-12T14:14:19;4.90;;;2.87;;
18875;SDS011;9570;50.854;13.778;2023-08-12T14:16:45;4.10;;;3.00;;
18875;SDS011;9570;50.854;13.778;2023-08-12T14:19:10;5.07;;;2.97;;
18875;SDS011;9570;50.854;13.778;2023-08-12T14:21:36;3.70;;;2.80;;
18875;SDS011;9570;50.854;13.778;2023-08-12T14:24:01;6.17;;;3.03;;
18875;SDS011;9570;50.854;13.778;2023-08-12T14:26:27;7.73;;;2.97;;
18875;SDS011;9570;50.854;13.778;2023-08-12T14:28:52;4.67;;;2.73;;
18875;SDS011;9570;50.854;13.778;2023-08-12T14:31:18;5.47;;;2.77;;
18875;SDS011;9570;50.854;13.778;2023-08-12T14:33:43;3.33;;;2.70;;
18875;SDS011;9570;50.854;13.778;2023-08-12T14:36:09;6.67;;;2.83;;
18875;SDS011;9570;50.854;13.778;2023-08-12T14:38:34;4.93;;;3.07;;
18875;SDS011;9570;50.854;13.778;2023-08-12T14:41:00;3.80;;;2.70;;
18875;SDS011;9570;50.854;13.778;2023-08-12T14:43:26;5.63;;;2.70;;
18875;SDS011;9570;50.854;13.778;2023-08-12T14:45:51;4.70;;;2.87;;
18875;SDS011;9570;50.854;13.778;2023-08-12T14:48:17;3.10;;;2.77;;
18875;SDS011;9570;50.854;13.778;2023-08-12T14:50:43;3.70;;;2.97;;
18875;SDS011;9570;50.854;13.778;2023-08-12T14:53:09;5.47;;;2.80;;